Time;durP1;ratioP1;P1;durP2;ratioP2;P2;SDS_P1;SDS_P2;PMS_P1;PMS_P2;Temp;Humidity;BMP_temperature;BMP_pressure;BME280_temperature;BME280_humidity;BME280_pressure;Samples;Min_cycle;Max_cycle;Signal;HPM_P1;HPM_P2
2022/01/13 00:02:21;;;;;;;17.83;12.98;;;2.50;99.90;;;;;;5062271;28;20239;-51
2022/01/13 00:04:49;;;;;;;26.10;14.32;;;2.50;99.90;;;;;;5060571;28;20220;-50
2022/01/13 00:07:16;;;;;;;26.20;13.50;;;2.50;99.90;;;;;;5059335;28;20199;-48
2022/01/13 00:09:43;;;;;;;23.48;12.65;;;2.50;99.90;;;;;;5059692;28;20246;-48
2022/01/13 00:12:13;;;;;;;22.23;12.05;;;2.60;99.90;;;;;;5059138;28;20199;-49
2022/01/13 00:15:07;;;;;;;20.30;13.35;;;2.60;99.90;;;;;;5059169;28;20223;-48
2022/01/13 00:18:00;;;;;;;20.75;12.38;;;2.60;99.90;;;;;;5057842;28;20234;-47
2022/01/13 00:25:57;;;;;;;25.15;14.88;;;2.60;99.90;;;;;;5059937;28;20227;-50
2022/01/13 00:28:25;;;;;;;22.83;14.30;;;2.60;99.90;;;;;;5057319;28;20203;-50
2022/01/13 00:30:55;;;;;;;17.17;12.60;;;2.60;99.90;;;;;;5057311;28;20503;-47
2022/01/13 00:33:25;;;;;;;18.42;12.15;;;2.60;99.90;;;;;;5057561;28;20231;-50
2022/01/13 00:35:57;;;;;;;20.67;13.35;;;2.60;99.90;;;;;;5059811;28;20199;-50
2022/01/13 00:38:29;;;;;;;21.33;14.75;;;2.60;99.90;;;;;;5057685;28;20218;-48
2022/01/13 00:40:57;;;;;;;26.10;13.55;;;2.60;99.90;;;;;;5059780;28;20212;-47
2022/01/13 00:43:25;;;;;;;22.35;15.27;;;2.60;99.90;;;;;;5056927;28;20319;-53
2022/01/13 00:45:53;;;;;;;24.98;14.73;;;2.60;99.90;;;;;;5059467;28;20217;-48
2022/01/13 00:48:20;;;;;;;17.23;12.52;;;2.60;99.90;;;;;;5059725;28;20204;-51
2022/01/13 00:50:48;;;;;;;26.10;14.80;;;2.60;99.90;;;;;;5059580;28;20200;-49
2022/01/13 00:53:16;;;;;;;29.85;17.92;;;2.60;99.90;;;;;;5060373;28;20265;-51
2022/01/13 00:56:05;;;;;;;34.30;17.65;;;2.70;99.90;;;;;;5063376;28;20235;-53
2022/01/13 00:58:35;;;;;;;26.00;14.15;;;2.70;99.90;;;;;;5060562;28;20257;-50
2022/01/13 01:01:05;;;;;;;19.92;13.40;;;2.80;99.90;;;;;;5063079;28;20258;-50
2022/01/13 01:03:35;;;;;;;24.60;14.25;;;2.70;99.90;;;;;;5062298;28;20223;-50
2022/01/13 01:06:04;;;;;;;24.17;14.93;;;2.60;99.90;;;;;;5062721;28;20242;-51
2022/01/13 01:08:33;;;;;;;30.58;17.13;;;2.60;99.90;;;;;;5062509;28;20200;-50
2022/01/13 01:11:02;;;;;;;29.50;15.20;;;2.70;99.90;;;;;;5062958;28;20395;-51
2022/01/13 01:13:33;;;;;;;26.90;15.88;;;2.70;99.90;;;;;;5059098;28;20265;-50
2022/01/13 01:16:04;;;;;;;27.27;14.07;;;2.70;99.90;;;;;;5062981;28;20474;-52
2022/01/13 01:18:53;;;;;;;24.13;13.68;;;2.60;99.90;;;;;;5060379;28;20373;-50
2022/01/13 01:31:47;;;;;;;25.95;16.30;;;2.70;99.90;;;;;;5059680;28;20429;-52
2022/01/13 01:36:51;;;;;;;25.58;15.02;;;2.60;99.90;;;;;;5061956;28;20198;-47
2022/01/13 01:39:19;;;;;;;25.23;14.52;;;2.70;99.90;;;;;;5062546;28;20228;-48
2022/01/13 01:41:48;;;;;;;27.20;14.77;;;2.70;99.90;;;;;;5061832;28;20269;-48
2022/01/13 01:44:38;;;;;;;29.95;17.67;;;2.70;99.90;;;;;;5063258;28;20265;-49
2022/01/13 01:47:08;;;;;;;24.60;14.32;;;2.70;99.90;;;;;;5061850;28;20562;-48
2022/01/13 01:49:42;;;;;;;29.98;14.63;;;2.70;99.90;;;;;;5062534;28;20215;-51
2022/01/13 01:52:11;;;;;;;29.80;17.73;;;2.70;99.90;;;;;;5059980;28;20207;-51
2022/01/13 01:54:39;;;;;;;22.50;14.27;;;2.70;99.90;;;;;;5061545;28;20541;-47
2022/01/13 01:57:06;;;;;;;25.40;15.80;;;2.70;99.90;;;;;;5061473;28;20195;-49
2022/01/13 01:59:38;;;;;;;26.05;15.70;;;2.60;99.90;;;;;;5061566;28;20203;-48
2022/01/13 02:02:06;;;;;;;26.23;15.65;;;2.60;99.90;;;;;;5061729;28;20233;-55
2022/01/13 02:04:35;;;;;;;30.27;18.00;;;2.60;99.90;;;;;;5060113;28;20255;-49
2022/01/13 02:07:07;;;;;;;35.42;17.45;;;2.60;99.90;;;;;;5061746;28;20542;-47
2022/01/13 02:09:36;;;;;;;27.63;17.00;;;2.60;99.90;;;;;;5062026;28;20195;-49
2022/01/13 02:12:20;;;;;;;30.25;18.83;;;2.60;99.90;;;;;;5062947;28;20210;-50
2022/01/13 02:17:27;;;;;;;32.78;18.50;;;2.70;99.90;;;;;;5063200;28;20548;-51
2022/01/13 02:19:56;;;;;;;29.45;16.38;;;2.60;99.90;;;;;;5060400;28;20544;-50
2022/01/13 02:22:25;;;;;;;27.52;16.63;;;2.60;99.90;;;;;;5059806;28;20242;-47
2022/01/13 02:24:53;;;;;;;33.53;17.20;;;2.60;99.90;;;;;;5060997;28;20199;-49
2022/01/13 02:27:20;;;;;;;30.20;17.52;;;2.70;99.90;;;;;;5061323;28;20200;-48
2022/01/13 02:29:48;;;;;;;32.40;17.05;;;2.80;99.90;;;;;;5061718;28;20267;-48
2022/01/13 02:32:17;;;;;;;31.17;17.73;;;2.70;99.90;;;;;;5060831;28;20200;-53
2022/01/13 02:34:44;;;;;;;32.40;15.95;;;2.70;99.90;;;;;;5060982;28;20281;-49
2022/01/13 02:37:12;;;;;;;27.65;17.15;;;2.60;99.90;;;;;;5060550;28;20202;-51
2022/01/13 02:39:41;;;;;;;23.63;14.05;;;2.60;99.90;;;;;;5060948;28;20196;-50
2022/01/13 02:42:14;;;;;;;28.45;15.00;;;2.50;99.90;;;;;;5056621;28;20396;-51
2022/01/13 02:45:01;;;;;;;20.42;13.63;;;2.60;99.90;;;;;;5061275;28;20227;-48
2022/01/13 02:50:23;;;;;;;26.38;13.20;;;2.50;99.90;;;;;;5023164;28;20266;-49
2022/01/13 02:52:51;;;;;;;19.15;12.60;;;2.50;99.90;;;;;;5060437;28;20236;-49
2022/01/13 02:55:19;;;;;;;21.67;13.85;;;2.50;99.90;;;;;;5059274;28;20282;-52
2022/01/13 02:57:46;;;;;;;26.20;14.32;;;2.50;99.90;;;;;;5059741;28;20196;-49
2022/01/13 03:00:15;;;;;;;23.35;12.95;;;2.50;99.90;;;;;;5058899;28;20265;-50
2022/01/13 03:02:46;;;;;;;28.77;15.02;;;2.40;99.90;;;;;;5060679;28;20197;-48
2022/01/13 03:05:15;;;;;;;23.90;14.07;;;2.40;99.90;;;;;;5060192;28;20201;-49
2022/01/13 03:07:42;;;;;;;27.02;14.00;;;2.40;99.90;;;;;;5060497;28;20411;-48
2022/01/13 03:10:11;;;;;;;24.38;14.13;;;2.40;99.90;;;;;;5060727;28;20451;-51
2022/01/13 03:12:43;;;;;;;29.92;16.38;;;2.40;99.90;;;;;;5060278;28;20196;-49
2022/01/13 03:15:10;;;;;;;24.90;14.23;;;2.40;99.90;;;;;;5060124;28;20231;-50
2022/01/13 03:17:38;;;;;;;24.05;15.88;;;2.40;99.90;;;;;;5059820;28;20199;-51
2022/01/13 03:20:06;;;;;;;27.05;15.45;;;2.40;99.90;;;;;;5060094;28;20425;-48
2022/01/13 03:22:33;;;;;;;24.10;13.25;;;2.50;99.90;;;;;;5064778;28;20195;-52
2022/01/13 03:25:00;;;;;;;22.95;12.65;;;2.50;99.90;;;;;;5066061;28;20204;-48
2022/01/13 03:27:34;;;;;;;33.40;16.30;;;2.40;99.90;;;;;;5054470;28;20199;-51
2022/01/13 03:30:09;;;;;;;21.02;14.13;;;2.50;99.90;;;;;;5060524;28;20205;-52
2022/01/13 03:32:37;;;;;;;24.88;15.93;;;2.40;99.90;;;;;;5058053;28;20206;-48
2022/01/13 03:35:06;;;;;;;23.48;13.43;;;2.50;99.90;;;;;;5060119;28;20422;-48
2022/01/13 03:37:33;;;;;;;29.55;15.43;;;2.50;99.90;;;;;;5059560;28;20449;-46
2022/01/13 03:40:02;;;;;;;23.85;12.38;;;2.40;99.90;;;;;;5058030;28;20511;-46
2022/01/13 03:42:29;;;;;;;27.02;14.10;;;2.50;99.90;;;;;;5057044;28;20298;-50
2022/01/13 03:44:58;;;;;;;24.67;12.25;;;2.50;99.90;;;;;;5058160;28;20216;-49
2022/01/13 03:47:26;;;;;;;27.75;14.45;;;2.50;99.90;;;;;;5059394;28;20292;-51
2022/01/13 03:49:54;;;;;;;20.00;11.75;;;2.40;99.90;;;;;;5059690;28;20209;-51
2022/01/13 03:52:24;;;;;;;18.00;10.63;;;2.40;99.90;;;;;;5059476;28;20250;-48
2022/01/13 03:55:33;;;;;;;20.92;13.00;;;2.30;99.90;;;;;;5059307;28;20302;-48
2022/01/13 03:58:25;;;;;;;26.08;11.93;;;2.40;99.90;;;;;;5058973;28;20199;-49
2022/01/13 04:01:29;;;;;;;23.13;13.73;;;2.40;99.90;;;;;;5055371;28;20203;-49
2022/01/13 04:03:57;;;;;;;18.00;11.30;;;2.30;99.90;;;;;;5058318;28;20278;-53
2022/01/13 04:06:24;;;;;;;18.08;10.43;;;2.40;99.90;;;;;;5059189;28;20222;-51
2022/01/13 04:08:54;;;;;;;22.95;12.98;;;2.50;99.90;;;;;;5059596;28;20200;-49
2022/01/13 04:11:29;;;;;;;15.82;9.73;;;2.40;99.90;;;;;;5059163;28;20516;-48
2022/01/13 04:14:04;;;;;;;23.25;11.82;;;2.50;99.90;;;;;;5059771;28;20230;-48
2022/01/13 04:16:36;;;;;;;23.67;13.18;;;2.50;99.90;;;;;;5056531;28;20353;-49
2022/01/13 04:19:06;;;;;;;17.65;11.00;;;2.50;99.90;;;;;;5057003;28;20536;-50
2022/01/13 04:21:36;;;;;;;21.52;14.93;;;2.50;99.90;;;;;;5058889;28;20195;-48
2022/01/13 04:24:05;;;;;;;19.27;11.32;;;2.50;99.90;;;;;;5057488;28;20233;-50
2022/01/13 04:26:34;;;;;;;25.90;12.57;;;2.50;99.90;;;;;;5056113;28;20261;-48
2022/01/13 04:31:44;;;;;;;20.88;10.48;;;2.40;99.90;;;;;;5062073;28;20232;-50
2022/01/13 04:34:12;;;;;;;19.30;13.82;;;2.40;99.90;;;;;;5063262;28;20232;-51
2022/01/13 04:36:39;;;;;;;19.02;9.75;;;2.40;99.90;;;;;;5060130;28;20223;-50
2022/01/13 04:39:08;;;;;;;18.65;12.70;;;2.40;99.90;;;;;;5062938;28;20215;-51
2022/01/13 04:41:37;;;;;;;16.90;10.57;;;2.40;99.90;;;;;;5063805;28;20196;-49
2022/01/13 04:44:17;;;;;;;23.15;12.55;;;2.50;99.90;;;;;;5063117;28;20446;-51
2022/01/13 04:46:46;;;;;;;17.60;11.48;;;2.50;99.90;;;;;;5063202;28;20222;-52
2022/01/13 04:49:14;;;;;;;22.70;12.48;;;2.50;99.90;;;;;;5062835;28;20212;-50
2022/01/13 04:51:42;;;;;;;17.40;9.85;;;2.60;99.90;;;;;;5063194;28;20207;-48
2022/01/13 04:54:09;;;;;;;16.25;11.07;;;2.60;99.90;;;;;;5059918;28;20297;-49
2022/01/13 04:56:43;;;;;;;17.98;11.20;;;2.70;99.90;;;;;;5062840;28;20227;-52
2022/01/13 04:59:11;;;;;;;16.30;9.98;;;2.80;99.90;;;;;;5060099;28;20201;-50
2022/01/13 05:01:39;;;;;;;20.60;11.05;;;2.70;99.90;;;;;;5062891;28;20204;-52
2022/01/13 05:04:07;;;;;;;17.13;10.23;;;2.70;99.90;;;;;;5063865;28;20554;-48
2022/01/13 05:06:35;;;;;;;17.67;9.30;;;2.80;99.90;;;;;;5063823;28;20204;-51
2022/01/13 05:09:03;;;;;;;19.02;10.00;;;2.80;99.90;;;;;;5063124;28;20225;-48
2022/01/13 05:11:31;;;;;;;19.02;10.90;;;2.90;99.90;;;;;;5059687;28;20276;-54
2022/01/13 05:13:58;;;;;;;18.92;11.50;;;2.90;99.90;;;;;;5061076;28;20224;-52
2022/01/13 05:16:34;;;;;;;13.98;9.75;;;2.80;99.90;;;;;;5060845;28;20274;-51
2022/01/13 05:22:15;;;;;;;16.08;10.23;;;2.90;99.90;;;;;;5059998;28;20203;-52
2022/01/13 05:24:29;;;;;;;12.23;7.40;;;3.10;99.90;;;;;;5059433;28;20628;-51
2022/01/13 05:26:59;;;;;;;14.85;10.38;;;3.10;99.90;;;;;;5061952;28;20545;-48
2022/01/13 05:29:26;;;;;;;13.82;9.13;;;3.10;99.90;;;;;;5062159;28;20227;-50
2022/01/13 05:31:54;;;;;;;16.75;11.63;;;3.10;99.90;;;;;;5062204;28;20566;-52
2022/01/13 05:34:21;;;;;;;20.98;10.40;;;3.00;99.90;;;;;;5061675;28;20216;-51
2022/01/13 05:37:09;;;;;;;22.38;13.43;;;3.00;99.90;;;;;;5061960;28;20198;-53
2022/01/13 05:39:36;;;;;;;14.52;9.30;;;3.10;99.90;;;;;;5061865;28;20204;-51
2022/01/13 05:42:04;;;;;;;16.95;10.93;;;3.10;99.90;;;;;;5062056;28;20610;-50
2022/01/13 05:44:37;;;;;;;20.95;12.02;;;3.20;99.90;;;;;;5058878;28;20232;-51
2022/01/13 05:47:07;;;;;;;18.63;10.55;;;3.40;99.90;;;;;;5061331;28;20251;-50
2022/01/13 05:49:34;;;;;;;20.05;12.18;;;3.40;99.90;;;;;;5059213;28;20200;-54
2022/01/13 05:52:03;;;;;;;22.13;10.90;;;3.30;99.90;;;;;;5061432;28;20251;-54
2022/01/13 05:54:30;;;;;;;19.05;11.07;;;3.20;99.90;;;;;;5062333;28;20227;-52
2022/01/13 05:56:58;;;;;;;20.85;11.43;;;3.30;99.90;;;;;;5062367;28;20267;-47
2022/01/13 05:59:25;;;;;;;17.40;10.35;;;3.40;99.90;;;;;;5054257;28;20192;-49
2022/01/13 06:01:53;;;;;;;21.80;11.00;;;3.50;99.90;;;;;;5061428;28;20204;-50
2022/01/13 06:04:20;;;;;;;21.98;11.38;;;3.60;99.90;;;;;;5045070;28;20568;-49
2022/01/13 06:06:47;;;;;;;25.35;12.48;;;3.50;99.90;;;;;;5060384;28;20435;-53
2022/01/13 06:09:14;;;;;;;23.35;10.65;;;3.40;99.90;;;;;;5043525;28;20207;-53
2022/01/13 06:11:51;;;;;;;19.08;13.07;;;3.30;99.90;;;;;;5055526;28;20391;-53
2022/01/13 06:14:18;;;;;;;17.40;11.55;;;3.40;99.90;;;;;;5055187;28;20274;-47
2022/01/13 06:16:46;;;;;;;17.88;10.85;;;3.30;99.90;;;;;;5062387;28;20225;-49
2022/01/13 06:19:13;;;;;;;18.15;11.65;;;3.40;99.90;;;;;;5061587;28;20503;-54
2022/01/13 06:21:41;;;;;;;23.00;14.00;;;3.50;99.90;;;;;;5062111;28;20393;-47
2022/01/13 06:24:08;;;;;;;25.42;12.20;;;3.50;99.90;;;;;;5061461;28;20225;-54
2022/01/13 06:26:35;;;;;;;21.67;12.80;;;3.50;99.90;;;;;;5058864;28;20246;-51
2022/01/13 06:29:04;;;;;;;18.85;11.90;;;3.50;99.90;;;;;;5061209;28;20256;-50
2022/01/13 06:31:32;;;;;;;20.45;11.80;;;3.50;99.90;;;;;;5050804;28;20259;-51
2022/01/13 06:33:59;;;;;;;22.30;11.88;;;3.50;99.90;;;;;;5060797;28;20245;-48
2022/01/13 06:36:28;;;;;;;18.73;12.02;;;3.40;99.90;;;;;;5048390;28;20225;-49
2022/01/13 06:38:55;;;;;;;21.17;13.05;;;3.30;99.90;;;;;;5045248;28;20206;-48
2022/01/13 06:41:23;;;;;;;21.25;11.60;;;3.50;99.90;;;;;;5052854;28;20205;-49
2022/01/13 06:43:52;;;;;;;20.48;12.35;;;3.50;99.90;;;;;;5061645;28;20297;-48
2022/01/13 06:46:20;;;;;;;21.30;12.00;;;3.50;99.90;;;;;;5059652;28;20200;-51
2022/01/13 06:48:48;;;;;;;21.20;11.68;;;3.60;99.90;;;;;;5056232;28;20233;-49
2022/01/13 06:51:16;;;;;;;19.58;11.27;;;3.60;99.90;;;;;;5059065;28;20672;-50
2022/01/13 06:53:45;;;;;;;20.10;11.95;;;3.70;99.90;;;;;;5060950;28;20228;-47
2022/01/13 06:56:12;;;;;;;19.85;11.85;;;3.50;99.90;;;;;;5060315;28;20240;-50
2022/01/13 06:58:44;;;;;;;23.08;11.68;;;3.50;99.90;;;;;;5057748;28;20189;-50
2022/01/13 07:01:11;;;;;;;24.15;11.18;;;3.40;99.90;;;;;;5058957;28;20209;-54
2022/01/13 07:03:39;;;;;;;22.23;11.27;;;3.40;99.90;;;;;;5060558;28;20217;-50
2022/01/13 07:06:06;;;;;;;18.67;12.02;;;3.30;99.90;;;;;;5060373;28;20274;-53
2022/01/13 07:08:34;;;;;;;20.33;12.30;;;3.30;99.90;;;;;;5060397;28;20201;-48
2022/01/13 07:11:03;;;;;;;23.67;11.90;;;3.30;99.90;;;;;;5061135;28;20201;-49
2022/01/13 07:13:32;;;;;;;16.38;11.10;;;3.30;99.90;;;;;;5060338;28;20224;-50
2022/01/13 07:16:01;;;;;;;29.17;11.57;;;3.30;99.90;;;;;;5060483;28;20216;-52
2022/01/13 07:18:30;;;;;;;19.27;11.95;;;3.40;99.90;;;;;;5060180;28;20197;-52
2022/01/13 07:20:57;;;;;;;19.15;10.18;;;3.50;99.90;;;;;;5060792;28;20201;-52
2022/01/13 07:23:25;;;;;;;23.20;11.50;;;3.60;99.90;;;;;;5060282;28;20567;-51
2022/01/13 07:25:52;;;;;;;19.02;11.35;;;3.60;99.90;;;;;;5059403;28;20209;-50
2022/01/13 07:28:19;;;;;;;16.27;10.00;;;3.60;99.90;;;;;;5060717;28;20254;-48
2022/01/13 07:30:46;;;;;;;16.52;9.13;;;3.60;99.90;;;;;;5060080;28;20206;-53
2022/01/13 07:33:14;;;;;;;15.73;8.73;;;3.70;99.90;;;;;;5060829;28;20301;-50
2022/01/13 07:35:42;;;;;;;16.30;9.27;;;3.70;99.90;;;;;;5059821;28;20228;-50
2022/01/13 07:38:10;;;;;;;17.67;10.20;;;3.90;99.90;;;;;;5046520;28;20392;-48
2022/01/13 07:40:37;;;;;;;22.00;10.35;;;3.90;99.90;;;;;;5052157;28;20205;-48
2022/01/13 07:43:05;;;;;;;13.20;8.73;;;4.00;99.90;;;;;;5051051;28;20228;-53
2022/01/13 07:45:33;;;;;;;13.70;8.98;;;4.10;99.90;;;;;;5059116;28;20255;-49
2022/01/13 07:48:00;;;;;;;24.98;10.43;;;4.10;99.90;;;;;;5058740;28;20214;-50
2022/01/13 07:50:33;;;;;;;14.02;7.80;;;4.20;99.90;;;;;;5059577;28;20487;-48
2022/01/13 07:53:00;;;;;;;12.50;8.50;;;4.20;99.90;;;;;;5059025;28;20237;-52
2022/01/13 07:55:28;;;;;;;13.65;9.43;;;4.20;99.90;;;;;;5059648;28;20208;-50
2022/01/13 07:57:55;;;;;;;11.00;7.32;;;4.20;99.90;;;;;;5059278;28;20208;-48
2022/01/13 08:00:23;;;;;;;13.13;8.40;;;4.30;99.90;;;;;;5059230;28;20465;-50
2022/01/13 08:02:50;;;;;;;13.40;6.97;;;4.30;99.90;;;;;;5059868;28;20219;-49
2022/01/13 08:05:17;;;;;;;15.43;7.25;;;4.40;99.90;;;;;;5060974;28;20236;-52
2022/01/13 08:07:45;;;;;;;21.33;8.68;;;4.40;99.90;;;;;;5061950;28;20244;-49
2022/01/13 08:10:12;;;;;;;10.60;7.30;;;4.40;99.90;;;;;;5061462;28;20598;-52
2022/01/13 08:12:40;;;;;;;11.05;7.35;;;4.50;99.90;;;;;;5060493;28;20274;-48
2022/01/13 08:15:13;;;;;;;16.58;9.77;;;4.50;99.90;;;;;;5059784;28;20289;-50
2022/01/13 08:20:33;;;;;;;9.93;7.75;;;4.60;99.90;;;;;;5059458;28;20201;-51
2022/01/13 08:23:02;;;;;;;12.93;7.70;;;4.60;99.90;;;;;;5059349;28;20219;-49
2022/01/13 08:25:30;;;;;;;13.02;8.52;;;4.60;99.90;;;;;;5060489;28;20198;-52
2022/01/13 08:27:58;;;;;;;11.63;8.00;;;4.60;99.90;;;;;;5062133;28;20421;-51
2022/01/13 08:30:37;;;;;;;21.42;7.70;;;4.60;99.90;;;;;;5062570;28;20289;-51
2022/01/13 08:33:04;;;;;;;11.45;8.02;;;4.60;99.90;;;;;;5059109;28;20230;-50
2022/01/13 08:35:32;;;;;;;9.70;7.45;;;4.60;99.90;;;;;;5061763;28;20210;-51
2022/01/13 08:38:05;;;;;;;11.00;6.93;;;4.70;99.90;;;;;;5060684;28;20282;-53
2022/01/13 08:40:34;;;;;;;17.88;8.50;;;4.70;99.90;;;;;;5059279;28;20198;-52
2022/01/13 08:43:05;;;;;;;12.77;7.28;;;4.70;99.90;;;;;;5059501;28;20229;-49
2022/01/13 08:45:32;;;;;;;8.95;6.43;;;4.70;99.90;;;;;;5059287;28;20195;-53
2022/01/13 08:48:01;;;;;;;9.77;6.63;;;4.80;99.90;;;;;;5058922;28;20255;-53
2022/01/13 08:50:29;;;;;;;13.63;7.53;;;4.90;99.90;;;;;;5055709;28;20241;-51
2022/01/13 08:52:56;;;;;;;10.57;7.10;;;5.00;99.90;;;;;;5057894;28;20299;-53
2022/01/13 08:55:25;;;;;;;13.60;9.00;;;5.00;99.90;;;;;;5056793;28;20237;-51
2022/01/13 08:57:52;;;;;;;10.98;7.05;;;4.90;99.90;;;;;;5057628;28;20230;-52
2022/01/13 09:00:20;;;;;;;12.05;5.57;;;5.00;99.90;;;;;;5058464;28;20199;-50
2022/01/13 09:02:48;;;;;;;9.88;6.45;;;5.00;99.90;;;;;;5059221;28;20281;-51
2022/01/13 09:05:17;;;;;;;12.13;5.90;;;4.90;99.90;;;;;;5060111;28;20218;-54
2022/01/13 09:07:45;;;;;;;9.85;6.35;;;4.90;99.90;;;;;;5061248;28;20211;-53
2022/01/13 09:10:14;;;;;;;14.77;7.10;;;5.00;99.90;;;;;;5060267;28;20409;-51
2022/01/13 09:12:41;;;;;;;11.10;7.88;;;4.90;99.90;;;;;;5059640;28;20509;-49
2022/01/13 09:15:19;;;;;;;16.40;6.53;;;5.00;99.90;;;;;;5062529;28;20534;-51
2022/01/13 09:17:51;;;;;;;12.10;7.25;;;5.00;99.90;;;;;;5063825;28;20221;-55
2022/01/13 09:20:19;;;;;;;9.30;7.07;;;4.90;99.90;;;;;;5062932;28;20237;-52
2022/01/13 09:22:47;;;;;;;8.57;6.07;;;4.90;99.90;;;;;;5063205;28;20237;-53
2022/01/13 09:25:14;;;;;;;16.17;7.78;;;4.90;99.90;;;;;;5062931;28;20229;-51
2022/01/13 09:27:42;;;;;;;9.80;6.22;;;4.90;99.90;;;;;;5062663;28;20214;-51
2022/01/13 09:30:12;;;;;;;12.57;7.35;;;4.90;99.90;;;;;;5063255;28;20269;-50
2022/01/13 09:32:39;;;;;;;11.35;8.57;;;4.90;99.90;;;;;;5062932;28;20199;-53
2022/01/13 09:35:07;;;;;;;14.90;8.23;;;4.90;99.90;;;;;;5063937;28;20217;-49
2022/01/13 09:37:35;;;;;;;14.48;8.50;;;4.90;99.90;;;;;;5063763;28;20226;-49
2022/01/13 09:40:07;;;;;;;13.05;7.65;;;4.90;99.90;;;;;;5062966;28;20198;-50
2022/01/13 09:42:38;;;;;;;9.95;7.63;;;4.80;99.90;;;;;;5063992;28;20241;-53
2022/01/13 09:45:07;;;;;;;12.30;7.25;;;4.80;99.90;;;;;;5063009;28;20199;-49
2022/01/13 09:47:37;;;;;;;15.32;10.52;;;4.70;99.90;;;;;;5062503;28;20229;-50
2022/01/13 09:50:10;;;;;;;11.90;10.07;;;4.70;99.90;;;;;;5062475;28;20237;-52
2022/01/13 09:52:38;;;;;;;17.15;8.73;;;4.70;99.90;;;;;;5061830;28;20268;-49
2022/01/13 09:55:07;;;;;;;14.32;9.35;;;4.70;99.90;;;;;;5062133;28;20376;-52
2022/01/13 09:57:35;;;;;;;15.43;8.80;;;4.70;99.90;;;;;;5061600;28;20226;-52
2022/01/13 10:00:03;;;;;;;14.77;8.75;;;4.60;99.90;;;;;;5062108;28;20229;-52
2022/01/13 10:02:31;;;;;;;10.18;7.93;;;4.70;99.90;;;;;;5061626;28;20418;-49
2022/01/13 10:04:58;;;;;;;13.70;8.93;;;4.70;99.90;;;;;;5062155;28;20588;-54
2022/01/13 10:07:38;;;;;;;16.05;9.70;;;4.70;99.90;;;;;;5061809;28;20405;-53
2022/01/13 10:10:28;;;;;;;21.00;10.13;;;4.60;99.90;;;;;;5062438;28;20206;-51
2022/01/13 10:13:12;;;;;;;14.35;8.40;;;4.60;99.90;;;;;;5061473;28;20231;-52
2022/01/13 10:18:45;;;;;;;13.73;9.00;;;4.60;99.90;;;;;;5059021;28;20202;-54
2022/01/13 10:21:16;;;;;;;16.00;10.30;;;4.60;99.90;;;;;;5062535;28;20260;-49
2022/01/13 10:24:12;;;;;;;15.35;9.80;;;4.60;99.90;;;;;;5063315;28;20222;-51
2022/01/13 10:26:55;;;;;;;21.40;10.50;;;4.60;99.90;;;;;;5062665;28;20198;-52
2022/01/13 10:29:40;;;;;;;14.65;9.10;;;4.60;99.90;;;;;;5063933;28;20500;-54
2022/01/13 10:32:13;;;;;;;18.17;10.35;;;4.50;99.90;;;;;;5063496;28;20394;-53
2022/01/13 10:34:44;;;;;;;20.42;10.98;;;4.50;99.90;;;;;;5065127;28;20260;-52
2022/01/13 10:37:15;;;;;;;18.80;8.57;;;4.50;99.90;;;;;;5062977;28;20226;-52
2022/01/13 10:40:01;;;;;;;18.23;8.85;;;4.60;99.90;;;;;;5064630;28;20194;-55
2022/01/13 10:45:26;;;;;;;12.98;9.82;;;4.80;99.90;;;;;;5061317;28;20199;-54
2022/01/13 10:47:56;;;;;;;18.05;9.93;;;4.90;99.90;;;;;;5060983;28;20364;-49
2022/01/13 10:50:37;;;;;;;14.70;9.32;;;5.00;99.90;;;;;;5060754;28;20569;-52
2022/01/13 10:53:09;;;;;;;10.73;8.77;;;5.00;99.90;;;;;;5060699;28;20229;-49
2022/01/13 10:55:39;;;;;;;17.73;9.85;;;5.00;99.90;;;;;;5060773;28;20401;-52
2022/01/13 10:58:11;;;;;;;13.20;10.98;;;5.00;99.90;;;;;;5060481;28;20214;-49
2022/01/13 11:00:39;;;;;;;14.02;9.63;;;4.90;99.90;;;;;;5075920;28;20207;-52
2022/01/13 11:03:12;;;;;;;17.55;9.90;;;4.80;99.90;;;;;;5061310;28;20215;-49
2022/01/13 11:05:54;;;;;;;10.80;8.55;;;4.90;99.90;;;;;;5060286;28;20515;-53
2022/01/13 11:08:32;;;;;;;11.20;8.20;;;4.80;99.90;;;;;;5060768;28;20203;-50
2022/01/13 11:11:01;;;;;;;11.55;7.40;;;4.90;99.90;;;;;;5060419;28;20210;-52
2022/01/13 11:13:35;;;;;;;12.73;8.05;;;4.90;99.90;;;;;;5062893;28;20230;-52
2022/01/13 11:16:03;;;;;;;13.32;9.45;;;4.90;99.90;;;;;;5064810;28;20214;-50
2022/01/13 11:18:31;;;;;;;11.30;8.43;;;5.00;99.90;;;;;;5061048;28;20277;-52
2022/01/13 11:21:01;;;;;;;17.13;7.95;;;5.00;99.90;;;;;;5060678;28;20251;-51
2022/01/13 11:23:30;;;;;;;11.52;8.43;;;5.00;99.90;;;;;;5059970;28;20287;-49
2022/01/13 11:25:57;;;;;;;11.98;8.13;;;5.10;99.90;;;;;;5060722;28;20206;-50
2022/01/13 11:28:25;;;;;;;16.00;8.73;;;5.10;99.90;;;;;;5060338;28;20221;-54
2022/01/13 11:30:53;;;;;;;10.23;8.15;;;5.20;99.90;;;;;;5060458;28;20276;-51
2022/01/13 11:33:23;;;;;;;11.70;8.95;;;5.20;99.90;;;;;;5060253;28;20219;-51
2022/01/13 11:36:00;;;;;;;8.85;7.72;;;5.20;99.90;;;;;;5059763;28;20198;-50
2022/01/13 11:38:31;;;;;;;14.38;9.10;;;5.20;99.90;;;;;;5060272;28;20479;-50
2022/01/13 11:41:04;;;;;;;12.02;7.95;;;5.30;99.90;;;;;;5059685;28;20229;-52
2022/01/13 11:43:42;;;;;;;10.20;7.40;;;5.30;99.90;;;;;;5060376;28;20215;-51
2022/01/13 11:46:19;;;;;;;11.30;7.50;;;5.40;99.90;;;;;;5062295;28;20203;-51
2022/01/13 11:49:03;;;;;;;12.13;8.45;;;5.40;99.90;;;;;;5060840;28;20467;-54
2022/01/13 11:51:56;;;;;;;10.30;8.38;;;5.50;99.90;;;;;;5059974;28;20205;-50
2022/01/13 11:54:33;;;;;;;16.45;8.80;;;5.40;99.90;;;;;;5059795;28;20413;-53
2022/01/13 11:57:26;;;;;;;11.38;6.78;;;5.40;99.90;;;;;;5058828;28;20272;-48
2022/01/13 11:59:56;;;;;;;14.23;8.65;;;5.40;99.90;;;;;;5059420;28;20196;-51
2022/01/13 12:02:25;;;;;;;10.95;6.82;;;5.50;99.90;;;;;;5058489;28;20205;-50
2022/01/13 12:05:00;;;;;;;13.45;7.10;;;5.50;99.90;;;;;;5059791;28;20347;-50
2022/01/13 12:07:38;;;;;;;11.95;7.40;;;5.50;99.90;;;;;;5059224;28;20212;-50
2022/01/13 12:10:07;;;;;;;12.13;7.63;;;5.50;99.90;;;;;;5059248;28;20228;-51
2022/01/13 12:12:35;;;;;;;17.20;7.97;;;5.60;99.90;;;;;;5060105;28;20281;-51
2022/01/13 12:15:16;;;;;;;8.73;6.25;;;5.70;99.90;;;;;;5059571;28;20206;-51
2022/01/13 12:17:50;;;;;;;14.13;9.57;;;5.70;99.90;;;;;;5059200;28;20223;-55
2022/01/13 12:20:56;;;;;;;12.13;8.00;;;5.70;99.90;;;;;;5058730;28;20265;-51
2022/01/13 12:23:42;;;;;;;21.65;7.38;;;5.70;99.90;;;;;;5059443;28;20448;-51
2022/01/13 12:26:33;;;;;;;12.50;7.60;;;5.70;99.90;;;;;;5058817;28;20199;-50
2022/01/13 12:29:10;;;;;;;12.30;7.50;;;5.70;99.90;;;;;;5048118;28;20583;-50
2022/01/13 12:31:56;;;;;;;10.68;6.57;;;5.80;99.90;;;;;;5057727;28;20207;-51
2022/01/13 12:34:29;;;;;;;12.63;7.30;;;5.80;99.90;;;;;;5058931;28;20223;-48
2022/01/13 12:37:09;;;;;;;8.77;6.65;;;5.80;99.90;;;;;;5059240;28;20223;-51
2022/01/13 12:39:46;;;;;;;10.40;8.27;;;5.80;99.90;;;;;;5059016;28;20202;-51
2022/01/13 12:42:16;;;;;;;14.48;6.57;;;5.80;99.90;;;;;;5059545;28;20231;-52
2022/01/13 12:45:32;;;;;;;17.50;6.90;;;5.80;99.90;;;;;;5059110;28;20223;-52
2022/01/13 12:47:32;;;;;;;12.38;6.65;;;5.80;99.90;;;;;;5045783;28;20203;-52
2022/01/13 12:49:59;;;;;;;10.85;6.70;;;5.80;99.90;;;;;;5062424;28;20207;-54
2022/01/13 12:52:27;;;;;;;15.10;8.02;;;5.80;99.90;;;;;;5063850;28;20210;-53
2022/01/13 12:54:55;;;;;;;17.17;8.80;;;5.80;99.90;;;;;;5063887;28;20202;-49
2022/01/13 12:57:23;;;;;;;8.80;6.68;;;5.70;99.90;;;;;;5057659;28;20219;-50
2022/01/13 12:59:58;;;;;;;13.60;8.50;;;5.70;99.90;;;;;;5058481;28;20246;-49
2022/01/13 13:02:26;;;;;;;10.88;6.47;;;5.70;99.90;;;;;;5048405;28;20213;-53
2022/01/13 13:04:53;;;;;;;20.30;8.60;;;5.50;99.90;;;;;;5054694;28;20230;-50
2022/01/13 13:07:21;;;;;;;9.68;7.85;;;5.40;99.90;;;;;;5062922;28;20203;-53
2022/01/13 13:09:48;;;;;;;9.13;7.47;;;5.30;99.90;;;;;;5063484;28;20429;-50
2022/01/13 13:12:25;;;;;;;10.98;7.50;;;5.20;99.90;;;;;;5063589;28;20214;-54
2022/01/13 13:17:46;;;;;;;11.10;7.03;;;5.20;99.90;;;;;;5063826;28;20395;-51
2022/01/13 13:20:42;;;;;;;13.52;8.07;;;5.20;99.90;;;;;;5063591;28;20198;-57
2022/01/13 13:23:10;;;;;;;11.45;7.75;;;5.20;99.90;;;;;;5067167;28;20238;-52
2022/01/13 13:25:41;;;;;;;16.02;8.23;;;5.20;99.90;;;;;;5067247;28;20213;-50
2022/01/13 13:28:24;;;;;;;15.02;6.25;;;5.10;99.90;;;;;;5065996;28;20219;-53
2022/01/13 13:30:57;;;;;;;15.32;8.18;;;5.10;99.90;;;;;;5064374;28;20277;-49
2022/01/13 13:34:02;;;;;;;13.10;7.45;;;5.10;99.90;;;;;;5063280;28;20470;-51
2022/01/13 13:36:33;;;;;;;13.05;8.55;;;5.00;99.90;;;;;;5062798;28;20262;-50
2022/01/13 13:39:15;;;;;;;13.70;8.30;;;5.00;99.90;;;;;;5062898;28;20223;-51
2022/01/13 13:41:50;;;;;;;10.63;7.30;;;4.90;99.90;;;;;;5062819;28;20363;-52
2022/01/13 13:44:20;;;;;;;15.32;8.80;;;4.90;99.90;;;;;;5062407;28;20226;-49
2022/01/13 13:46:53;;;;;;;14.73;7.88;;;4.90;99.90;;;;;;5062628;28;20233;-51